createdAt,value
2018-12-06T00:00:05.477Z,100853.02
2018-12-06T00:02:34.169Z,100852.02
2018-12-06T00:05:02.448Z,100857.39
2018-12-06T00:07:30.751Z,100860.13
2018-12-06T00:09:59.025Z,100864.95
2018-12-06T00:12:27.332Z,100856.77
2018-12-06T00:15:07.361Z,100858.47
2018-12-06T00:17:35.664Z,100853.61
2018-12-06T00:20:04.793Z,100854.08
2018-12-06T00:22:33.107Z,100856.45
2018-12-06T00:25:01.417Z,100847.28
2018-12-06T00:27:29.780Z,100853.80
2018-12-06T00:30:10.038Z,100861.16
2018-12-06T00:32:38.380Z,100859.42
2018-12-06T00:35:06.685Z,100856.81
2018-12-06T00:37:34.966Z,100857.92
2018-12-06T00:40:04.618Z,100852.76
2018-12-06T00:42:32.895Z,100845.87
2018-12-06T00:45:01.267Z,100852.76
2018-12-06T00:47:29.617Z,100855.84
2018-12-06T00:49:57.921Z,100858.89
2018-12-06T00:52:26.218Z,100852.48
2018-12-06T00:54:54.516Z,100858.23
2018-12-06T00:57:22.817Z,100853.93
2018-12-06T00:59:51.243Z,100857.80
2018-12-06T01:02:19.583Z,100861.05
2018-12-06T01:04:47.928Z,100872.81
2018-12-06T01:07:16.355Z,100886.31
2018-12-06T01:09:44.661Z,100885.88
2018-12-06T01:12:13.008Z,100879.42
2018-12-06T01:14:41.464Z,100879.31
2018-12-06T01:17:09.829Z,100880.26
2018-12-06T01:19:38.118Z,100880.42
2018-12-06T01:22:06.484Z,100881.25
2018-12-06T01:24:34.773Z,100869.18
2018-12-06T01:27:03.085Z,100870.59
2018-12-06T01:29:31.360Z,100863.65
2018-12-06T01:31:59.679Z,100863.38
2018-12-06T01:34:28.029Z,100864.91
2018-12-06T01:36:56.341Z,100865.44
2018-12-06T01:39:24.610Z,100856.89
2018-12-06T01:41:52.912Z,100858.72
2018-12-06T01:44:21.222Z,100861.10
2018-12-06T01:46:49.647Z,100856.39
2018-12-06T01:49:18.009Z,100862.28
2018-12-06T01:51:46.308Z,100856.55
2018-12-06T01:54:14.581Z,100858.56
2018-12-06T01:56:42.886Z,100851.73
2018-12-06T01:59:11.168Z,100854.27
2018-12-06T02:01:39.482Z,100844.44
2018-12-06T02:04:07.790Z,100841.44
2018-12-06T02:06:36.062Z,100839.88
2018-12-06T02:09:07.103Z,100841.90
2018-12-06T02:11:35.404Z,100837.23
2018-12-06T02:14:03.933Z,100830.69
2018-12-06T02:16:32.285Z,100831.52
2018-12-06T02:19:00.590Z,100829.48
2018-12-06T02:21:28.872Z,100830.23
2018-12-06T02:23:57.174Z,100835.72
2018-12-06T02:26:25.469Z,100833.34
2018-12-06T02:28:53.767Z,100826.85
2018-12-06T02:31:22.054Z,100829.38
2018-12-06T02:33:50.486Z,100826.04
2018-12-06T02:36:18.803Z,100827.70
2018-12-06T02:38:47.121Z,100819.30
2018-12-06T02:41:15.407Z,100811.31
2018-12-06T02:43:43.700Z,100814.53
2018-12-06T02:46:11.981Z,100811.69
2018-12-06T02:48:40.296Z,100808.09
2018-12-06T02:51:08.572Z,100811.33
2018-12-06T02:53:36.864Z,100810.41
2018-12-06T02:56:05.195Z,100807.45
2018-12-06T02:58:33.473Z,100806.45
2018-12-06T03:01:01.854Z,100801.78
2018-12-06T03:03:30.149Z,100806.06
2018-12-06T03:05:58.446Z,100810.02
2018-12-06T03:08:27.092Z,100800.24
2018-12-06T03:10:55.524Z,100795.19
2018-12-06T03:13:23.876Z,100798.39
2018-12-06T03:15:52.181Z,100795.90
2018-12-06T03:18:20.545Z,100806.91
2018-12-06T03:20:48.842Z,100803.88
2018-12-06T03:23:17.131Z,100804.27
2018-12-06T03:25:45.481Z,100806.70
2018-12-06T03:28:13.797Z,100800.92
2018-12-06T03:30:42.105Z,100802.10
2018-12-06T03:33:10.520Z,100797.72
2018-12-06T03:35:38.859Z,100792.08
2018-12-06T03:38:07.165Z,100800.00
2018-12-06T03:40:35.514Z,100795.05
2018-12-06T03:43:03.820Z,100802.59
2018-12-06T03:45:32.109Z,100800.67
2018-12-06T03:48:00.434Z,100803.23
2018-12-06T03:50:28.743Z,100808.41
2018-12-06T03:52:57.029Z,100812.58
2018-12-06T03:55:25.353Z,100821.84
2018-12-06T03:57:53.658Z,100818.61
2018-12-06T04:00:21.942Z,100818.03
2018-12-06T04:02:50.231Z,100821.73
2018-12-06T04:05:18.537Z,100815.00
2018-12-06T04:07:47.148Z,100822.06
2018-12-06T04:10:15.461Z,100825.17
2018-12-06T04:12:43.759Z,100821.46
2018-12-06T04:15:12.063Z,100815.83
2018-12-06T04:17:40.371Z,100824.73
2018-12-06T04:20:08.748Z,100821.49
2018-12-06T04:22:37.041Z,100820.28
2018-12-06T04:25:05.422Z,100818.28
2018-12-06T04:27:33.726Z,100812.89
2018-12-06T04:30:02.197Z,100816.35
2018-12-06T04:32:31.014Z,100819.09
2018-12-06T04:34:59.317Z,100811.67
2018-12-06T04:37:27.736Z,100811.80
2018-12-06T04:39:56.109Z,100822.83
2018-12-06T04:42:24.397Z,100819.61
2018-12-06T04:44:52.761Z,100830.88
2018-12-06T04:47:21.038Z,100827.38
2018-12-06T04:49:49.346Z,100834.13
2018-12-06T04:52:17.622Z,100837.13
2018-12-06T04:54:46.103Z,100836.53
2018-12-06T04:57:14.348Z,100843.13
2018-12-06T04:59:42.641Z,100844.67
2018-12-06T05:02:10.915Z,100856.41
2018-12-06T05:04:39.220Z,100856.55
2018-12-06T05:07:07.504Z,100857.48
2018-12-06T05:09:35.818Z,100852.09
2018-12-06T05:12:04.109Z,100852.70
2018-12-06T05:14:32.409Z,100856.33
2018-12-06T05:17:00.713Z,100860.50
2018-12-06T05:19:29.401Z,100864.00
2018-12-06T05:21:57.683Z,100861.00
2018-12-06T05:24:25.985Z,100866.99
2018-12-06T05:26:54.352Z,100871.67
2018-12-06T05:29:22.630Z,100870.23
2018-12-06T05:31:51.043Z,100870.34
2018-12-06T05:34:19.331Z,100875.41
2018-12-06T05:36:47.632Z,100876.12
2018-12-06T05:39:15.929Z,100878.76
2018-12-06T05:41:44.217Z,100872.78
2018-12-06T05:44:12.523Z,100862.08
2018-12-06T05:46:40.919Z,100865.69
2018-12-06T05:49:09.185Z,100855.86
2018-12-06T05:51:37.466Z,100856.19
2018-12-06T05:54:05.761Z,100870.60
2018-12-06T05:56:34.044Z,100876.88
2018-12-06T05:59:02.337Z,100880.45
2018-12-06T06:01:30.649Z,100888.49
2018-12-06T06:03:59.038Z,100888.75
2018-12-06T06:06:27.350Z,100892.22
2018-12-06T06:08:55.644Z,100884.90
2018-12-06T06:11:23.921Z,100893.68
2018-12-06T06:13:52.246Z,100895.00
2018-12-06T06:16:20.828Z,100908.06
2018-12-06T06:18:49.128Z,100901.59
2018-12-06T06:21:17.402Z,100902.54
2018-12-06T06:23:45.717Z,100913.73
2018-12-06T06:26:13.998Z,100910.23
2018-12-06T06:28:42.309Z,100907.73
2018-12-06T06:31:10.633Z,100916.26
2018-12-06T06:33:39.049Z,100912.16
2018-12-06T06:36:07.366Z,100902.68
2018-12-06T06:38:35.663Z,100906.99
2018-12-06T06:41:03.964Z,100910.25
2018-12-06T06:43:32.237Z,100907.59
2018-12-06T06:46:00.544Z,100907.13
2018-12-06T06:48:28.845Z,100915.77
2018-12-06T06:50:57.175Z,100912.86
2018-12-06T06:53:25.477Z,100915.89
2018-12-06T06:55:53.783Z,100921.27
2018-12-06T06:58:22.064Z,100934.38
2018-12-06T07:00:50.334Z,100937.36
2018-12-06T07:03:18.628Z,100940.95
2018-12-06T07:05:46.951Z,100945.77
2018-12-06T07:08:15.416Z,100952.90
2018-12-06T07:10:43.801Z,100960.00
2018-12-06T07:13:12.166Z,100960.74
2018-12-06T07:15:40.468Z,100962.95
2018-12-06T07:18:08.743Z,100973.41
2018-12-06T07:20:37.049Z,100972.56
2018-12-06T07:23:05.425Z,100978.36
2018-12-06T07:25:33.695Z,100986.77
2018-12-06T07:28:01.987Z,100986.52
2018-12-06T07:30:30.341Z,100989.40
2018-12-06T07:32:58.645Z,100987.71
2018-12-06T07:35:26.920Z,100987.47
2018-12-06T07:37:55.224Z,100984.47
2018-12-06T07:40:23.505Z,100990.25
2018-12-06T07:42:51.818Z,100988.31
2018-12-06T07:45:20.234Z,100986.76
2018-12-06T07:47:48.513Z,100991.66
2018-12-06T07:50:16.812Z,100996.02
2018-12-06T07:52:45.137Z,101006.23
2018-12-06T07:55:13.415Z,101007.55
2018-12-06T07:57:41.705Z,101006.35
2018-12-06T08:00:10.409Z,101013.56
2018-12-06T08:02:38.712Z,101016.66
2018-12-06T08:05:07.064Z,101006.57
2018-12-06T08:07:35.346Z,101016.68
2018-12-06T08:10:04.687Z,101015.81
2018-12-06T08:12:33.007Z,101012.83
2018-12-06T08:15:01.312Z,101015.45
2018-12-06T08:17:29.580Z,101020.17
2018-12-06T08:19:57.869Z,101021.48
2018-12-06T08:22:26.159Z,101021.60
2018-12-06T08:24:54.426Z,101027.13
2018-12-06T08:27:22.945Z,101023.05
2018-12-06T08:29:51.212Z,101025.55
2018-12-06T08:32:19.510Z,101027.25
2018-12-06T08:34:47.781Z,101030.83
2018-12-06T08:37:16.073Z,101032.52
2018-12-06T08:39:44.352Z,101026.98
2018-12-06T08:42:12.642Z,101032.65
2018-12-06T08:44:40.938Z,101028.08
2018-12-06T08:47:09.233Z,101025.44
2018-12-06T08:49:37.620Z,101028.94
2018-12-06T08:52:05.994Z,101031.10
2018-12-06T08:54:34.272Z,101034.20
2018-12-06T08:57:02.571Z,101029.51
2018-12-06T08:59:30.889Z,101033.23
2018-12-06T09:01:59.237Z,101031.70
2018-12-06T09:04:27.518Z,101042.64
2018-12-06T09:06:55.808Z,101048.98
2018-12-06T09:09:24.127Z,101052.62
2018-12-06T09:11:52.406Z,101044.69
2018-12-06T09:14:20.737Z,101049.48
2018-12-06T09:16:49.069Z,101059.09
2018-12-06T09:19:17.366Z,101062.59
2018-12-06T09:21:45.656Z,101068.37
2018-12-06T09:24:13.969Z,101070.64
2018-12-06T09:26:42.249Z,101072.67
2018-12-06T09:29:10.557Z,101067.00
2018-12-06T09:31:38.860Z,101058.45
2018-12-06T09:34:07.487Z,101058.55
2018-12-06T09:36:36.256Z,101062.38
2018-12-06T09:39:07.461Z,101052.59
2018-12-06T09:41:35.761Z,101043.41
2018-12-06T09:44:04.464Z,101036.36
2018-12-06T09:46:33.546Z,101034.63
2018-12-06T09:49:01.872Z,101016.41
2018-12-06T09:51:30.481Z,101010.42
2018-12-06T09:53:58.762Z,101009.85
2018-12-06T09:56:27.040Z,101016.66
2018-12-06T09:58:55.349Z,101020.28
2018-12-06T10:01:23.641Z,101025.19
2018-12-06T10:03:51.963Z,101021.19
2018-12-06T10:06:20.330Z,101027.73
2018-12-06T10:08:48.633Z,101039.95
2018-12-06T10:11:16.926Z,101054.84
2018-12-06T10:13:45.242Z,101053.98
2018-12-06T10:16:13.518Z,101059.58
2018-12-06T10:18:41.825Z,101068.18
2018-12-06T10:21:10.121Z,101063.20
2018-12-06T10:23:39.367Z,101073.28
2018-12-06T10:26:08.079Z,101067.80
2018-12-06T10:28:36.459Z,101071.38
2018-12-06T10:31:04.738Z,101078.66
2018-12-06T10:33:33.393Z,101073.31
2018-12-06T10:36:01.705Z,101068.38
2018-12-06T10:38:30.017Z,101068.08
2018-12-06T10:40:58.365Z,101066.88
2018-12-06T10:43:26.847Z,101070.05
2018-12-06T10:45:55.137Z,101080.86
2018-12-06T10:48:23.415Z,101073.81
2018-12-06T10:50:51.737Z,101082.53
2018-12-06T10:53:20.013Z,101081.27
2018-12-06T10:55:48.324Z,101084.30
2018-12-06T10:58:16.605Z,101081.85
2018-12-06T11:00:57.057Z,101080.10
2018-12-06T11:03:24.807Z,101083.27
2018-12-06T11:05:53.114Z,101081.73
2018-12-06T11:08:21.417Z,101078.38
2018-12-06T11:10:49.733Z,101082.47
2018-12-06T11:13:18.328Z,101075.25
2018-12-06T11:15:46.641Z,101072.38
2018-12-06T11:18:14.962Z,101079.12
2018-12-06T11:20:43.265Z,101070.52
2018-12-06T11:23:11.834Z,101064.22
2018-12-06T11:25:40.142Z,101061.95
2018-12-06T11:28:08.425Z,101068.66
2018-12-06T11:30:36.898Z,101060.20
2018-12-06T11:33:05.178Z,101059.57
2018-12-06T11:35:33.477Z,101062.23
2018-12-06T11:38:01.762Z,101062.23
2018-12-06T11:40:30.061Z,101064.13
2018-12-06T11:42:58.379Z,101067.22
2018-12-06T11:45:26.761Z,101068.96
2018-12-06T11:47:56.001Z,101066.71
2018-12-06T11:50:24.580Z,101067.41
2018-12-06T11:52:52.905Z,101074.63
2018-12-06T11:55:21.266Z,101069.56
2018-12-06T11:57:49.853Z,101070.33
2018-12-06T12:00:18.160Z,101072.56
2018-12-06T12:02:46.474Z,101080.53
2018-12-06T12:05:14.754Z,101082.28
2018-12-06T12:07:43.081Z,101074.66
2018-12-06T12:10:11.569Z,101080.69
2018-12-06T12:12:40.277Z,101094.10
2018-12-06T12:15:08.638Z,101083.77
2018-12-06T12:17:39.134Z,101085.66
2018-12-06T12:20:09.023Z,101084.11
2018-12-06T12:22:37.323Z,101083.77
2018-12-06T12:25:06.096Z,101091.73
2018-12-06T12:27:34.388Z,101090.81
2018-12-06T12:30:02.802Z,101087.46
2018-12-06T12:32:31.080Z,101089.42
2018-12-06T12:34:59.388Z,101088.50
2018-12-06T12:37:28.209Z,101081.87
2018-12-06T12:39:56.521Z,101086.42
2018-12-06T12:42:24.836Z,101079.56
2018-12-06T12:44:53.371Z,101084.58
2018-12-06T12:47:21.613Z,101080.48
2018-12-06T12:49:49.929Z,101084.95
2018-12-06T12:52:18.240Z,101086.01
2018-12-06T12:54:46.589Z,101094.67
2018-12-06T12:57:14.906Z,101086.63
2018-12-06T12:59:43.217Z,101092.92
2018-12-06T13:02:11.613Z,101103.96
2018-12-06T13:04:39.903Z,101111.02
2018-12-06T13:07:11.608Z,101105.20
2018-12-06T13:09:39.925Z,101101.84
2018-12-06T13:12:08.287Z,101095.39
2018-12-06T13:14:36.565Z,101090.50
2018-12-06T13:17:04.881Z,101093.16
2018-12-06T13:19:33.163Z,101092.27
2018-12-06T13:22:01.537Z,101090.38
2018-12-06T13:24:29.828Z,101095.87
2018-12-06T13:26:58.129Z,101096.34
2018-12-06T13:29:26.417Z,101096.56
2018-12-06T13:31:55.283Z,101092.45
2018-12-06T13:34:23.563Z,101086.83
2018-12-06T13:36:51.889Z,101081.45
2018-12-06T13:39:20.202Z,101078.14
2018-12-06T13:41:48.730Z,101075.20
2018-12-06T13:44:17.373Z,101076.20
2018-12-06T13:46:45.684Z,101084.55
2018-12-06T13:49:13.994Z,101089.73
2018-12-06T13:51:42.305Z,101084.55
2018-12-06T13:54:10.623Z,101087.27
2018-12-06T13:56:38.926Z,101078.39
2018-12-06T13:59:07.225Z,101080.28
2018-12-06T14:01:35.529Z,101075.77
2018-12-06T14:04:03.992Z,101070.64
2018-12-06T14:06:32.311Z,101082.53
2018-12-06T14:09:00.631Z,101086.42
2018-12-06T14:11:28.916Z,101087.27
2018-12-06T14:13:57.309Z,101083.41
2018-12-06T14:16:25.603Z,101078.96
2018-12-06T14:18:53.993Z,101078.20
2018-12-06T14:21:22.314Z,101083.52
2018-12-06T14:23:50.944Z,101086.42
2018-12-06T14:26:19.297Z,101090.50
2018-12-06T14:28:47.649Z,101092.45
2018-12-06T14:31:16.454Z,101087.49
2018-12-06T14:33:44.902Z,101102.16
2018-12-06T14:36:13.210Z,101096.50
2018-12-06T14:38:41.531Z,101104.13
2018-12-06T14:41:09.829Z,101101.02
2018-12-06T14:43:38.108Z,101099.16
2018-12-06T14:46:06.413Z,101093.02
2018-12-06T14:48:35.589Z,101093.44
2018-12-06T14:51:03.975Z,101089.11
2018-12-06T14:53:32.273Z,101082.78
2018-12-06T14:56:00.611Z,101089.27
2018-12-06T14:58:28.931Z,101103.52
2018-12-06T15:00:57.248Z,101099.09
2018-12-06T15:03:25.557Z,101102.16
2018-12-06T15:05:54.093Z,101098.02
2018-12-06T15:08:22.382Z,101094.77
2018-12-06T15:10:50.681Z,101091.13
2018-12-06T15:13:18.972Z,101094.10
2018-12-06T15:15:47.260Z,101099.09
2018-12-06T15:18:15.614Z,101097.42
2018-12-06T15:20:43.902Z,101111.11
2018-12-06T15:23:12.205Z,101112.72
2018-12-06T15:25:42.067Z,101113.07
2018-12-06T15:28:10.578Z,101108.67
2018-12-06T15:30:38.865Z,101102.59
2018-12-06T15:33:07.245Z,101106.23
2018-12-06T15:35:35.561Z,101102.38
2018-12-06T15:38:03.945Z,101101.91
2018-12-06T15:40:32.243Z,101098.20
2018-12-06T15:43:00.558Z,101097.16
2018-12-06T15:45:28.921Z,101094.50
2018-12-06T15:47:57.667Z,101092.12
2018-12-06T15:50:25.942Z,101093.23
2018-12-06T15:52:54.367Z,101093.61
2018-12-06T15:55:22.702Z,101094.94
2018-12-06T15:57:51.031Z,101092.97
2018-12-06T16:00:19.361Z,101094.09
2018-12-06T16:02:47.792Z,101091.66
2018-12-06T16:05:16.128Z,101091.31
2018-12-06T16:07:44.519Z,101083.69
2018-12-06T16:10:12.882Z,101081.84
2018-12-06T16:12:41.223Z,101084.30
2018-12-06T16:15:09.689Z,101086.74
2018-12-06T16:17:37.960Z,101084.25
2018-12-06T16:20:07.923Z,101076.84
2018-12-06T16:22:36.238Z,101076.19
2018-12-06T16:25:05.561Z,101078.30
2018-12-06T16:27:33.889Z,101080.19
2018-12-06T16:30:02.257Z,101087.52
2018-12-06T16:32:30.552Z,101078.16
2018-12-06T16:34:58.874Z,101081.38
2018-12-06T16:37:27.226Z,101081.52
2018-12-06T16:39:55.534Z,101082.50
2018-12-06T16:42:23.827Z,101081.50
2018-12-06T16:44:52.252Z,101082.36
2018-12-06T16:47:20.704Z,101085.70
2018-12-06T16:49:49.029Z,101079.41
2018-12-06T16:52:17.365Z,101082.92
2018-12-06T16:54:46.270Z,101077.52
2018-12-06T16:57:15.233Z,101077.30
2018-12-06T16:59:44.130Z,101081.92
2018-12-06T17:02:12.962Z,101077.17
2018-12-06T17:04:41.907Z,101081.42
2018-12-06T17:07:10.201Z,101083.39
2018-12-06T17:09:39.025Z,101086.40
2018-12-06T17:12:08.339Z,101093.59
2018-12-06T17:14:36.608Z,101088.56
2018-12-06T17:17:05.179Z,101091.57
2018-12-06T17:19:33.431Z,101088.22
2018-12-06T17:22:01.840Z,101090.45
2018-12-06T17:24:30.202Z,101090.37
2018-12-06T17:26:58.536Z,101088.70
2018-12-06T17:29:27.073Z,101079.36
2018-12-06T17:31:55.393Z,101075.75
2018-12-06T17:34:24.805Z,101075.62
2018-12-06T17:36:53.797Z,101074.02
2018-12-06T17:39:22.095Z,101071.20
2018-12-06T17:41:50.916Z,101074.24
2018-12-06T17:44:19.849Z,101078.06
2018-12-06T17:46:48.944Z,101066.88
2018-12-06T17:49:17.714Z,101069.19
2018-12-06T17:51:46.703Z,101067.44
2018-12-06T17:54:15.506Z,101061.52
2018-12-06T17:56:44.490Z,101062.20
2018-12-06T17:59:12.779Z,101062.27
2018-12-06T18:01:41.940Z,101049.74
2018-12-06T18:04:10.482Z,101054.02
2018-12-06T18:06:38.785Z,101049.48
2018-12-06T18:09:07.546Z,101055.56
2018-12-06T18:11:35.797Z,101052.27
2018-12-06T18:14:04.196Z,101056.77
2018-12-06T18:16:32.565Z,101055.48
2018-12-06T18:19:00.858Z,101051.71
2018-12-06T18:21:29.128Z,101060.25
2018-12-06T18:23:57.433Z,101053.89
2018-12-06T18:26:25.723Z,101060.03
2018-12-06T18:28:54.042Z,101058.14
2018-12-06T18:31:22.690Z,101050.33
2018-12-06T18:33:51.237Z,101052.12
2018-12-06T18:36:19.579Z,101053.80
2018-12-06T18:38:47.885Z,101060.80
2018-12-06T18:41:16.245Z,101065.20
2018-12-06T18:43:44.523Z,101058.84
2018-12-06T18:46:12.836Z,101055.55
2018-12-06T18:48:41.123Z,101051.36
2018-12-06T18:51:09.394Z,101047.59
2018-12-06T18:53:38.230Z,101048.70
2018-12-06T18:56:07.228Z,101044.43
2018-12-06T18:58:35.537Z,101042.15
2018-12-06T19:01:04.611Z,101044.43
2018-12-06T19:03:33.554Z,101053.25
2018-12-06T19:06:02.377Z,101056.89
2018-12-06T19:08:30.707Z,101058.09
2018-12-06T19:10:59.503Z,101058.36
2018-12-06T19:13:28.645Z,101054.79
2018-12-06T19:15:56.973Z,101056.81
2018-12-06T19:18:25.273Z,101045.41
2018-12-06T19:20:54.087Z,101055.83
2018-12-06T19:23:23.184Z,101044.17
2018-12-06T19:25:52.074Z,101048.98
2018-12-06T19:28:20.966Z,101055.91
2018-12-06T19:30:49.279Z,101052.56
2018-12-06T19:33:17.619Z,101050.05
2018-12-06T19:35:45.896Z,101048.62
2018-12-06T19:38:14.968Z,101047.64
2018-12-06T19:40:43.295Z,101047.25
2018-12-06T19:43:11.587Z,101041.94
2018-12-06T19:45:40.539Z,101035.86
2018-12-06T19:48:08.837Z,101044.94
2018-12-06T19:50:37.668Z,101033.54
2018-12-06T19:53:05.957Z,101033.59
2018-12-06T19:55:34.878Z,101029.34
2018-12-06T19:58:03.765Z,101032.08
2018-12-06T20:00:32.066Z,101028.09
2018-12-06T20:03:01.134Z,101027.93
2018-12-06T20:05:29.477Z,101025.62
2018-12-06T20:07:57.832Z,101017.38
2018-12-06T20:10:26.241Z,101025.48
2018-12-06T20:12:54.597Z,101022.35
2018-12-06T20:15:22.929Z,101024.50
2018-12-06T20:17:52.081Z,101023.47
2018-12-06T20:20:23.837Z,101018.16
2018-12-06T20:22:52.051Z,101022.14
2018-12-06T20:25:20.346Z,100998.44
2018-12-06T20:27:50.499Z,101020.38
2018-12-06T20:30:19.272Z,101018.97
2018-12-06T20:32:48.021Z,101025.91
2018-12-06T20:35:16.431Z,101019.91
2018-12-06T20:37:44.930Z,101020.09
2018-12-06T20:40:13.234Z,101022.27
2018-12-06T20:42:41.581Z,101014.77
2018-12-06T20:45:09.954Z,101016.39
2018-12-06T20:47:38.763Z,101014.00
2018-12-06T20:50:07.670Z,101015.28
2018-12-06T20:52:35.959Z,101018.16
2018-12-06T20:55:06.696Z,101016.95
2018-12-06T20:57:37.300Z,101010.78
2018-12-06T21:00:06.969Z,101005.34
2018-12-06T21:02:35.257Z,101001.91
2018-12-06T21:05:03.918Z,101005.89
2018-12-06T21:07:32.201Z,101011.55
2018-12-06T21:10:00.502Z,101007.78
2018-12-06T21:12:28.838Z,101003.23
2018-12-06T21:14:57.202Z,101002.69
2018-12-06T21:17:25.472Z,101012.06
2018-12-06T21:19:53.763Z,101011.08
2018-12-06T21:22:22.258Z,101014.30
2018-12-06T21:24:50.555Z,101008.84
2018-12-06T21:27:18.840Z,101008.85
2018-12-06T21:29:47.136Z,101009.67
2018-12-06T21:32:15.438Z,101005.63
2018-12-06T21:34:43.791Z,101004.78
2018-12-06T21:37:12.091Z,101003.96
2018-12-06T21:39:40.425Z,101006.41
2018-12-06T21:42:08.727Z,101006.41
2018-12-06T21:44:38.065Z,101004.57
2018-12-06T21:47:06.354Z,100999.77
2018-12-06T21:49:34.627Z,100993.94
2018-12-06T21:52:02.938Z,100990.67
2018-12-06T21:54:31.228Z,100992.27
2018-12-06T21:56:59.519Z,100984.08
2018-12-06T21:59:27.786Z,100987.16
2018-12-06T22:02:08.005Z,100983.17
2018-12-06T22:04:36.295Z,100985.73
2018-12-06T22:07:04.638Z,100988.98
2018-12-06T22:09:32.910Z,100984.22
2018-12-06T22:12:01.188Z,100986.06
2018-12-06T22:14:29.484Z,100980.02
2018-12-06T22:16:57.954Z,100986.88
2018-12-06T22:19:26.439Z,100985.41
2018-12-06T22:21:54.902Z,100986.09
2018-12-06T22:24:23.174Z,100985.13
2018-12-06T22:26:51.452Z,100989.49
2018-12-06T22:29:19.748Z,100988.50
2018-12-06T22:31:48.024Z,100982.68
2018-12-06T22:34:16.311Z,100984.06
2018-12-06T22:36:44.596Z,100989.84
2018-12-06T22:39:13.048Z,100984.52
2018-12-06T22:41:41.326Z,100988.64
2018-12-06T22:44:09.614Z,100990.84
2018-12-06T22:46:37.911Z,100992.04
2018-12-06T22:49:06.375Z,100990.84
2018-12-06T22:51:34.648Z,100985.84
2018-12-06T22:54:03.478Z,100987.31
2018-12-06T22:56:31.739Z,100989.97
2018-12-06T22:59:00.052Z,100983.51
2018-12-06T23:01:33.985Z,100983.85
2018-12-06T23:04:02.272Z,100986.66
2018-12-06T23:06:30.545Z,100981.20
2018-12-06T23:08:58.857Z,100976.02
2018-12-06T23:11:27.483Z,100977.50
2018-12-06T23:13:55.757Z,100969.37
2018-12-06T23:16:24.052Z,100974.36
2018-12-06T23:18:52.333Z,100967.64
2018-12-06T23:21:20.629Z,100969.74
2018-12-06T23:23:48.937Z,100964.60
2018-12-06T23:26:17.258Z,100965.75
2018-12-06T23:28:45.522Z,100964.05
2018-12-06T23:31:13.817Z,100972.82
2018-12-06T23:33:42.101Z,100965.45
2018-12-06T23:36:11.690Z,100963.78
2018-12-06T23:38:40.395Z,100966.23
2018-12-06T23:41:08.674Z,100969.23
2018-12-06T23:43:36.965Z,100964.00
2018-12-06T23:46:05.308Z,100964.91
2018-12-06T23:48:33.577Z,100966.92
2018-12-06T23:51:13.755Z,100960.58
2018-12-06T23:53:42.032Z,100958.73
2018-12-06T23:56:10.344Z,100956.16
2018-12-06T23:58:38.625Z,100948.87
